Time;durP1;ratioP1;P1;durP2;ratioP2;P2;SDS_P1;SDS_P2;PMS_P1;PMS_P2;Temp;Humidity;BMP_temperature;BMP_pressure;BME280_temperature;BME280_humidity;BME280_pressure;Samples;Min_cycle;Max_cycle;Signal;HPM_P1;HPM_P2
2022/04/12 00:01:34;;;;;;;;;11.75;10.75;;;26.49;98005.95;;;;117900;1186;25718;-35
2022/04/12 00:04:03;;;;;;;;;15.50;10.75;;;26.49;98003.41;;;;117853;1188;25455;-34
2022/04/12 00:06:31;;;;;;;;;9.00;7.00;;;26.48;98008.35;;;;117860;1187;26275;-35
2022/04/12 00:08:59;;;;;;;;;13.00;9.67;;;26.48;98004.45;;;;117816;1187;25682;-34
2022/04/12 00:11:26;;;;;;;;;13.50;10.00;;;26.46;98003.34;;;;117863;1186;24906;-33
2022/04/12 00:13:54;;;;;;;;;10.00;7.00;;;26.45;98004.71;;;;117829;1187;26233;-35
2022/04/12 00:16:22;;;;;;;;;12.00;10.75;;;26.43;97999.91;;;;117834;1187;25242;-36
2022/04/12 00:19:02;;;;;;;;;11.25;10.00;;;26.43;98000.96;;;;117846;1186;25305;-34
2022/04/12 00:21:34;;;;;;;;;12.75;10.75;;;26.43;98000.11;;;;117816;1186;26254;-32
2022/04/12 00:24:04;;;;;;;;;12.25;9.25;;;26.42;97999.11;;;;117917;1187;25627;-35
2022/04/12 00:26:32;;;;;;;;;13.00;11.50;;;26.44;98000.86;;;;117851;1187;25595;-35
2022/04/12 00:29:01;;;;;;;;;6.75;6.75;;;26.42;98001.64;;;;117930;1188;25355;-35
2022/04/12 00:31:30;;;;;;;;;13.00;9.50;;;26.43;97999.66;;;;117944;1188;25278;-34
2022/04/12 00:33:59;;;;;;;;;12.75;7.75;;;26.44;98001.37;;;;117866;1188;25264;-35
2022/04/12 00:36:28;;;;;;;;;9.33;7.33;;;26.44;98002.17;;;;117909;1188;25717;-36
2022/04/12 00:38:56;;;;;;;;;10.75;9.00;;;26.43;98004.94;;;;117851;1188;26109;-33
2022/04/12 00:41:24;;;;;;;;;11.75;11.75;;;26.39;98005.30;;;;117816;1188;24764;-34
2022/04/12 00:43:51;;;;;;;;;10.75;9.75;;;26.36;98003.38;;;;117806;1187;25099;-34
2022/04/12 00:46:19;;;;;;;;;13.33;10.00;;;26.35;98004.27;;;;117903;1188;25188;-35
2022/04/12 00:48:48;;;;;;;;;8.33;7.33;;;26.36;98001.20;;;;117827;1188;24951;-33
2022/04/12 00:51:16;;;;;;;;;7.67;7.67;;;26.34;98002.24;;;;117855;1186;25359;-34
2022/04/12 00:53:45;;;;;;;;;9.25;9.00;;;26.34;97999.82;;;;117871;1187;25513;-35
2022/04/12 00:56:13;;;;;;;;;8.00;8.00;;;26.34;98002.52;;;;117958;1187;25436;-36
2022/04/12 00:58:45;;;;;;;;;9.25;9.25;;;26.36;98004.18;;;;117823;1188;25328;-35
2022/04/12 01:01:13;;;;;;;;;7.33;7.00;;;26.34;98004.08;;;;117842;1186;25494;-35
2022/04/12 01:03:41;;;;;;;;;7.50;7.50;;;26.33;98002.77;;;;117843;1186;25224;-34
2022/04/12 01:06:09;;;;;;;;;9.75;8.25;;;26.30;98000.71;;;;117859;1188;25813;-35
2022/04/12 01:08:36;;;;;;;;;10.00;10.00;;;26.29;98003.00;;;;117860;1188;25347;-34
2022/04/12 01:11:07;;;;;;;;;11.00;9.75;;;26.27;98000.41;;;;117437;1188;25509;-35
2022/04/12 01:13:36;;;;;;;;;11.00;10.00;;;26.27;97996.63;;;;117855;1186;25267;-35
2022/04/12 01:16:07;;;;;;;;;10.67;10.00;;;26.28;97998.14;;;;117943;1188;25532;-36
2022/04/12 01:18:35;;;;;;;;;9.00;9.00;;;26.29;97998.92;;;;117860;1187;25675;-35
2022/04/12 01:21:04;;;;;;;;;12.25;9.50;;;26.27;97998.64;;;;117803;1187;25691;-34
2022/04/12 01:23:40;;;;;;;;;12.50;10.50;;;26.26;97997.46;;;;117900;1187;25620;-36
2022/04/12 01:26:08;;;;;;;;;8.67;7.67;;;26.29;97998.05;;;;117885;1187;24987;-35
2022/04/12 01:28:36;;;;;;;;;10.75;8.25;;;26.28;97994.92;;;;117942;1187;25435;-33
2022/04/12 01:31:05;;;;;;;;;8.25;6.75;;;26.29;97995.61;;;;117907;1187;25539;-34
2022/04/12 01:33:33;;;;;;;;;7.50;7.00;;;26.27;97999.05;;;;117888;1187;25004;-35
2022/04/12 01:36:01;;;;;;;;;9.00;8.25;;;26.27;97999.83;;;;117883;1187;25715;-34
2022/04/12 01:38:29;;;;;;;;;9.75;8.00;;;26.23;97997.41;;;;117880;1187;25324;-36
2022/04/12 01:40:56;;;;;;;;;15.67;10.67;;;26.20;97997.67;;;;117858;1187;25688;-33
2022/04/12 01:43:24;;;;;;;;;10.67;8.33;;;26.19;97995.48;;;;117828;1188;24819;-33
2022/04/12 01:45:52;;;;;;;;;9.25;9.00;;;26.16;97992.52;;;;117858;1186;25511;-34
2022/04/12 01:48:20;;;;;;;;;8.75;8.00;;;26.14;97991.97;;;;117933;1188;25361;-36
2022/04/12 01:50:49;;;;;;;;;11.75;9.00;;;26.17;97989.20;;;;117866;1188;25658;-36
2022/04/12 01:53:16;;;;;;;;;7.50;7.00;;;26.14;97991.62;;;;117856;1186;25405;-35
2022/04/12 01:55:44;;;;;;;;;7.67;7.00;;;26.13;97990.64;;;;117850;1187;25225;-33
2022/04/12 01:58:12;;;;;;;;;8.50;7.25;;;26.14;97993.34;;;;117495;1189;25320;-35
2022/04/12 02:00:42;;;;;;;;;7.67;7.00;;;26.14;97990.08;;;;117838;1188;25573;-34
2022/04/12 02:03:10;;;;;;;;;9.50;9.25;;;26.13;97989.85;;;;117852;1186;25055;-34
2022/04/12 02:05:39;;;;;;;;;6.50;6.50;;;26.11;97986.55;;;;117817;1187;24820;-34
2022/04/12 02:08:08;;;;;;;;;11.00;8.50;;;26.09;97986.39;;;;117898;1188;25509;-34
2022/04/12 02:10:36;;;;;;;;;11.50;8.50;;;26.11;97985.56;;;;117827;1187;25399;-35
2022/04/12 02:13:04;;;;;;;;;4.75;4.75;;;26.10;97985.06;;;;117868;1188;25378;-35
2022/04/12 02:15:33;;;;;;;;;7.33;6.33;;;26.07;97985.16;;;;117874;1188;24865;-34
2022/04/12 02:18:01;;;;;;;;;7.67;7.67;;;26.09;97986.58;;;;117885;1186;25031;-36
2022/04/12 02:20:29;;;;;;;;;12.67;9.33;;;26.12;97988.64;;;;117898;1188;25697;-35
2022/04/12 02:22:57;;;;;;;;;6.50;5.00;;;26.10;97990.52;;;;117850;1187;25621;-37
2022/04/12 02:25:25;;;;;;;;;8.75;7.75;;;26.08;97988.35;;;;117832;1188;25369;-36
2022/04/12 02:27:53;;;;;;;;;9.00;9.00;;;26.06;97986.61;;;;117859;1188;25472;-35
2022/04/12 02:30:20;;;;;;;;;6.25;6.25;;;26.05;97985.33;;;;117851;1188;25608;-35
2022/04/12 02:32:48;;;;;;;;;9.00;9.00;;;26.05;97982.14;;;;117858;1187;26462;-34
2022/04/12 02:35:16;;;;;;;;;8.50;8.25;;;26.03;97987.38;;;;117818;1188;26132;-35
2022/04/12 02:37:44;;;;;;;;;10.33;8.00;;;26.01;97989.92;;;;117873;1186;24984;-34
2022/04/12 02:40:12;;;;;;;;;6.50;5.50;;;26.03;97988.44;;;;117848;1187;25334;-35
2022/04/12 02:42:40;;;;;;;;;7.25;6.25;;;26.03;97988.13;;;;117868;1187;25398;-33
2022/04/12 02:45:08;;;;;;;;;6.50;6.50;;;26.03;97989.20;;;;117824;1186;25419;-34
2022/04/12 02:47:36;;;;;;;;;8.00;4.75;;;26.01;97991.02;;;;117917;1188;25164;-36
2022/04/12 02:50:04;;;;;;;;;9.00;8.00;;;26.01;97988.05;;;;117905;1188;25186;-35
2022/04/12 02:52:32;;;;;;;;;11.00;7.75;;;26.00;97995.95;;;;117840;1188;25251;-35
2022/04/12 02:55:00;;;;;;;;;6.00;6.00;;;26.00;97993.48;;;;117831;1187;24889;-35
2022/04/12 02:57:28;;;;;;;;;7.75;5.75;;;25.98;97994.30;;;;117826;1188;24879;-35
2022/04/12 02:59:55;;;;;;;;;7.67;7.33;;;25.96;97990.27;;;;117861;1188;25609;-35
2022/04/12 03:02:23;;;;;;;;;8.50;7.75;;;25.98;97987.39;;;;117880;1187;26252;-35
2022/04/12 03:04:51;;;;;;;;;7.00;7.00;;;25.98;97985.39;;;;117847;1186;25562;-34
2022/04/12 03:07:19;;;;;;;;;8.00;7.00;;;25.97;97991.31;;;;117816;1186;25560;-35
2022/04/12 03:09:47;;;;;;;;;6.75;6.75;;;25.94;97993.17;;;;117877;1186;25552;-35
2022/04/12 03:12:15;;;;;;;;;7.50;7.50;;;25.96;97996.73;;;;117863;1188;25202;-34
2022/04/12 03:14:43;;;;;;;;;7.00;5.00;;;25.96;97998.65;;;;117822;1186;26234;-34
2022/04/12 03:17:15;;;;;;;;;7.00;7.00;;;25.94;97996.73;;;;117862;1187;25746;-33
2022/04/12 03:19:43;;;;;;;;;8.00;6.33;;;25.95;97998.80;;;;117847;1186;25437;-35
2022/04/12 03:22:11;;;;;;;;;8.75;6.00;;;25.93;98001.77;;;;117832;1187;25466;-34
2022/04/12 03:24:39;;;;;;;;;7.00;7.00;;;25.94;97999.90;;;;117383;1189;25185;-36
2022/04/12 03:27:07;;;;;;;;;7.33;7.33;;;25.91;97996.16;;;;117800;1188;25058;-34
2022/04/12 03:29:35;;;;;;;;;8.00;7.00;;;25.91;97994.57;;;;117839;1186;24718;-33
2022/04/12 03:32:03;;;;;;;;;7.75;5.25;;;25.92;97996.98;;;;117440;1189;26254;-36
2022/04/12 03:34:32;;;;;;;;;7.00;5.75;;;25.90;97995.63;;;;117843;1188;25466;-36
2022/04/12 03:37:00;;;;;;;;;5.75;5.25;;;25.93;97995.90;;;;117849;1188;25527;-35
2022/04/12 03:39:28;;;;;;;;;6.00;3.25;;;25.96;97996.42;;;;117867;1186;26083;-36
2022/04/12 03:41:56;;;;;;;;;6.00;6.00;;;25.99;97999.19;;;;117875;1186;25513;-35
2022/04/12 03:44:24;;;;;;;;;3.75;3.50;;;25.99;98003.74;;;;117888;1188;24737;-35
2022/04/12 03:46:52;;;;;;;;;6.00;5.25;;;26.02;98004.63;;;;117824;1187;25485;-35
2022/04/12 03:49:20;;;;;;;;;8.00;6.00;;;26.02;98004.41;;;;117858;1187;25333;-33
2022/04/12 03:51:48;;;;;;;;;6.67;6.33;;;26.03;98008.10;;;;117929;1188;25301;-33
2022/04/12 03:54:16;;;;;;;;;3.75;3.75;;;26.09;98008.72;;;;117814;1187;25814;-36
2022/04/12 03:56:44;;;;;;;;;5.25;4.50;;;26.09;98007.33;;;;117870;1188;24970;-34
2022/04/12 03:59:11;;;;;;;;;6.67;5.67;;;26.08;98003.85;;;;117837;1188;25529;-34
2022/04/12 04:01:39;;;;;;;;;4.00;4.00;;;26.10;97999.90;;;;117927;1187;24740;-43
2022/04/12 04:04:09;;;;;;;;;6.00;5.25;;;26.13;98001.17;;;;117799;1187;24738;-35
2022/04/12 04:06:37;;;;;;;;;7.00;5.50;;;26.12;98000.79;;;;117942;1186;25256;-38
2022/04/12 04:09:05;;;;;;;;;5.75;5.25;;;26.18;98001.48;;;;117862;1187;25234;-34
2022/04/12 04:11:33;;;;;;;;;5.00;5.00;;;26.17;98002.84;;;;117825;1187;24891;-35
2022/04/12 04:14:03;;;;;;;;;5.75;5.00;;;26.17;98002.69;;;;117889;1187;26582;-34
2022/04/12 04:16:31;;;;;;;;;5.00;3.75;;;26.17;98001.95;;;;117815;1187;25350;-36
2022/04/12 04:19:02;;;;;;;;;6.67;5.33;;;26.19;98002.06;;;;117890;1187;25127;-35
2022/04/12 04:21:31;;;;;;;;;7.67;4.67;;;26.19;97998.69;;;;117826;1186;25304;-32
2022/04/12 04:24:01;;;;;;;;;5.00;5.00;;;26.19;97999.10;;;;117851;1187;25753;-35
2022/04/12 04:26:29;;;;;;;;;7.75;6.00;;;26.15;98000.15;;;;117886;1188;25471;-33
2022/04/12 04:28:56;;;;;;;;;7.00;5.25;;;26.19;98004.65;;;;117884;1187;24829;-36
2022/04/12 04:31:24;;;;;;;;;7.00;5.25;;;26.19;98013.45;;;;117886;1188;25180;-34
2022/04/12 04:33:57;;;;;;;;;10.50;5.00;;;26.20;98021.19;;;;117891;1188;25980;-34
2022/04/12 04:36:25;;;;;;;;;8.00;7.00;;;26.22;98018.30;;;;117802;1187;25350;-35
2022/04/12 04:38:52;;;;;;;;;7.00;5.00;;;26.19;98023.52;;;;117806;1187;25042;-36
2022/04/12 04:41:22;;;;;;;;;3.33;3.33;;;26.17;98022.02;;;;117803;1187;25250;-36
2022/04/12 04:43:50;;;;;;;;;6.00;3.50;;;26.18;98020.23;;;;117357;1188;25628;-33
2022/04/12 04:46:18;;;;;;;;;6.75;5.50;;;26.19;98023.40;;;;117327;1190;25746;-37
2022/04/12 04:48:46;;;;;;;;;6.25;6.25;;;26.19;98027.04;;;;117346;1188;25280;-35
2022/04/12 04:51:14;;;;;;;;;8.00;6.50;;;26.15;98029.37;;;;117429;1189;25407;-35
2022/04/12 04:53:43;;;;;;;;;11.25;7.00;;;26.17;98032.82;;;;117894;1187;25276;-36
2022/04/12 04:56:15;;;;;;;;;11.67;8.33;;;26.19;98034.30;;;;117860;1187;25608;-39
2022/04/12 04:58:46;;;;;;;;;10.25;8.25;;;26.25;98039.77;;;;117578;1188;25430;-34
2022/04/12 05:01:16;;;;;;;;;17.75;9.75;;;26.31;98042.16;;;;117754;1187;25568;-33
2022/04/12 05:03:50;;;;;;;;;8.33;8.00;;;26.30;98045.74;;;;117806;1187;24786;-36
2022/04/12 05:06:20;;;;;;;;;10.75;5.75;;;26.34;98046.52;;;;117848;1188;24971;-34
2022/04/12 05:08:48;;;;;;;;;9.75;9.50;;;26.37;98048.34;;;;117816;1189;25012;-34
2022/04/12 05:11:16;;;;;;;;;13.75;8.75;;;26.38;98054.11;;;;118030;1181;25666;-35
2022/04/12 05:13:44;;;;;;;;;17.33;10.00;;;26.55;98050.54;;;;117353;1190;25063;-34
2022/04/12 05:16:12;;;;;;;;;10.25;8.00;;;26.51;98050.06;;;;117375;1189;26410;-34
2022/04/12 05:18:40;;;;;;;;;14.75;9.00;;;26.48;98053.25;;;;117354;1188;25272;-34
2022/04/12 05:21:08;;;;;;;;;12.75;9.50;;;26.45;98055.86;;;;117375;1190;25050;-35
2022/04/12 05:23:36;;;;;;;;;11.25;9.25;;;26.45;98059.73;;;;117369;1190;25798;-34
2022/04/12 05:26:04;;;;;;;;;10.25;8.25;;;26.45;98061.66;;;;117363;1189;25256;-35
2022/04/12 05:28:32;;;;;;;;;10.00;7.00;;;26.46;98059.20;;;;117898;1187;25077;-35
2022/04/12 05:30:59;;;;;;;;;12.00;9.25;;;26.47;98059.71;;;;117828;1187;25104;-36
2022/04/12 05:33:28;;;;;;;;;10.00;6.50;;;26.46;98055.84;;;;117811;1187;24968;-36
2022/04/12 05:35:56;;;;;;;;;11.25;7.75;;;26.47;98055.88;;;;117359;1189;25303;-34
2022/04/12 05:38:26;;;;;;;;;10.25;7.25;;;26.46;98057.92;;;;117866;1187;25707;-34
2022/04/12 05:40:55;;;;;;;;;12.75;8.75;;;26.49;98060.39;;;;117838;1188;25536;-35
2022/04/12 05:43:23;;;;;;;;;16.67;11.00;;;26.48;98057.84;;;;117843;1188;25388;-34
2022/04/12 05:45:54;;;;;;;;;15.00;9.33;;;26.51;98060.53;;;;117842;1188;25259;-35
2022/04/12 05:48:22;;;;;;;;;11.67;10.00;;;26.49;98064.41;;;;117806;1188;24753;-36
2022/04/12 05:50:50;;;;;;;;;12.00;10.00;;;26.49;98068.89;;;;117843;1187;25382;-36
2022/04/12 05:53:20;;;;;;;;;9.67;8.00;;;26.49;98073.87;;;;117359;1189;25528;-35
2022/04/12 05:55:48;;;;;;;;;8.67;8.67;;;26.49;98075.52;;;;117888;1187;25648;-35
2022/04/12 05:58:16;;;;;;;;;10.50;7.00;;;26.47;98071.50;;;;117840;1187;25393;-35
2022/04/12 06:00:44;;;;;;;;;11.00;7.25;;;26.46;98071.61;;;;117846;1186;24695;-35
2022/04/12 06:03:12;;;;;;;;;11.00;9.00;;;26.44;98075.76;;;;117817;1188;25725;-34
2022/04/12 06:05:41;;;;;;;;;16.25;14.00;;;26.45;98076.19;;;;117884;1189;24840;-34
2022/04/12 06:08:09;;;;;;;;;15.75;10.50;;;26.47;98077.80;;;;117893;1186;25684;-35
2022/04/12 06:10:37;;;;;;;;;8.75;8.25;;;26.47;98081.29;;;;117596;1187;24841;-38
2022/04/12 06:13:05;;;;;;;;;9.67;8.33;;;26.54;98079.14;;;;117549;1189;25037;-37
2022/04/12 06:15:33;;;;;;;;;8.33;8.33;;;26.67;98077.22;;;;117433;1189;25283;-36
2022/04/12 06:18:10;;;;;;;;;10.33;6.67;;;26.76;98078.79;;;;117564;1189;25470;-36
2022/04/12 06:20:39;;;;;;;;;8.33;8.33;;;26.78;98081.55;;;;117845;1187;25663;-37
2022/04/12 06:23:07;;;;;;;;;6.00;6.00;;;26.72;98082.98;;;;117816;1187;25735;-35
2022/04/12 06:25:36;;;;;;;;;9.75;8.25;;;26.68;98085.37;;;;117352;1189;25415;-34
2022/04/12 06:28:04;;;;;;;;;9.25;7.50;;;26.60;98091.58;;;;117397;1189;25458;-40
2022/04/12 06:30:32;;;;;;;;;9.00;9.00;;;26.53;98094.02;;;;117354;1189;25213;-37
2022/04/12 06:33:00;;;;;;;;;10.75;7.75;;;26.50;98096.94;;;;118045;1186;24901;-35
2022/04/12 06:35:27;;;;;;;;;6.75;5.00;;;26.60;98102.69;;;;117320;1189;25378;-35
2022/04/12 06:37:56;;;;;;;;;7.67;7.67;;;26.55;98105.52;;;;117589;1188;25721;-36
2022/04/12 06:40:25;;;;;;;;;10.25;8.75;;;26.51;98102.58;;;;117371;1189;25309;-35
2022/04/12 06:42:56;;;;;;;;;8.25;8.00;;;26.49;98104.84;;;;117446;1187;24971;-39
2022/04/12 06:45:24;;;;;;;;;9.25;6.75;;;26.55;98104.59;;;;117877;1186;25452;-35
2022/04/12 06:47:59;;;;;;;;;12.33;7.00;;;26.57;98105.02;;;;117720;1186;25600;-34
2022/04/12 06:50:27;;;;;;;;;12.75;10.00;;;26.54;98100.74;;;;117833;1188;25562;-37
2022/04/12 06:52:57;;;;;;;;;8.00;8.00;;;26.57;98101.21;;;;117855;1187;25637;-33
2022/04/12 06:55:26;;;;;;;;;9.75;7.00;;;26.60;98099.36;;;;117586;1187;25178;-34
2022/04/12 06:57:56;;;;;;;;;7.50;7.00;;;26.58;98098.41;;;;117417;1187;25394;-39
2022/04/12 07:00:25;;;;;;;;;8.00;7.25;;;26.60;98101.30;;;;117394;1189;25509;-36
2022/04/12 07:02:56;;;;;;;;;6.50;6.50;;;26.60;98101.23;;;;117842;1188;25780;-35
2022/04/12 07:05:25;;;;;;;;;8.33;6.33;;;26.64;98103.73;;;;117789;1188;25699;-36
2022/04/12 07:07:57;;;;;;;;;5.75;4.75;;;26.62;98103.57;;;;117333;1187;25684;-37
2022/04/12 07:10:28;;;;;;;;;8.00;8.00;;;26.61;98101.84;;;;117463;1189;25629;-37
2022/04/12 07:12:59;;;;;;;;;5.67;4.00;;;26.62;98101.12;;;;117400;1189;25529;-36
2022/04/12 07:15:26;;;;;;;;;5.75;4.75;;;26.61;98098.44;;;;117837;1187;25663;-37
2022/04/12 07:17:54;;;;;;;;;9.25;8.25;;;26.61;98095.77;;;;117753;1186;25337;-36
2022/04/12 07:20:23;;;;;;;;;10.00;8.00;;;26.60;98095.64;;;;117943;1186;25436;-36
2022/04/12 07:22:55;;;;;;;;;11.00;8.00;;;26.61;98093.98;;;;117844;1188;25566;-34
2022/04/12 07:25:26;;;;;;;;;9.00;9.00;;;26.62;98095.00;;;;117503;1189;25625;-37
2022/04/12 07:27:57;;;;;;;;;8.25;7.25;;;26.67;98093.13;;;;117883;1186;25433;-34
2022/04/12 07:30:28;;;;;;;;;8.33;7.33;;;26.67;98095.77;;;;117891;1188;25532;-35
2022/04/12 07:33:19;;;;;;;;;6.00;6.00;;;26.74;98096.96;;;;117916;1186;24824;-34
2022/04/12 07:35:47;;;;;;;;;8.50;6.25;;;26.73;98098.80;;;;117792;1187;25456;-37
2022/04/12 07:38:17;;;;;;;;;9.50;7.00;;;26.69;98099.28;;;;117870;1187;25490;-33
2022/04/12 07:40:45;;;;;;;;;10.25;7.25;;;26.68;98102.73;;;;117968;1186;24861;-35
2022/04/12 07:43:13;;;;;;;;;9.00;7.67;;;26.68;98102.29;;;;117818;1188;25439;-36
2022/04/12 07:45:41;;;;;;;;;4.67;4.67;;;26.67;98104.96;;;;117837;1186;25056;-34
2022/04/12 07:48:10;;;;;;;;;8.50;7.25;;;26.63;98101.26;;;;117832;1187;26105;-36
2022/04/12 07:50:47;;;;;;;;;6.75;6.75;;;26.61;98103.67;;;;117372;1189;25442;-36
2022/04/12 07:53:17;;;;;;;;;12.00;6.33;;;26.62;98103.42;;;;117558;1189;24988;-36
2022/04/12 07:55:49;;;;;;;;;10.00;8.25;;;26.68;98102.83;;;;117863;1186;25752;-36
2022/04/12 07:58:20;;;;;;;;;10.25;7.50;;;26.67;98103.88;;;;117962;1187;25014;-38
2022/04/12 08:00:48;;;;;;;;;8.75;8.75;;;26.69;98105.95;;;;117934;1186;25165;-37
2022/04/12 08:03:18;;;;;;;;;9.25;8.00;;;26.71;98106.73;;;;118069;1187;25847;-37
2022/04/12 08:05:50;;;;;;;;;11.50;8.50;;;26.73;98107.73;;;;118117;1187;25262;-34
2022/04/12 08:08:22;;;;;;;;;8.25;7.50;;;26.75;98110.41;;;;117842;1186;25353;-37
2022/04/12 08:10:51;;;;;;;;;5.50;5.50;;;26.70;98105.84;;;;117938;1188;24949;-38
2022/04/12 08:13:20;;;;;;;;;7.50;6.50;;;26.70;98105.11;;;;117964;1188;25148;-34
2022/04/12 08:15:49;;;;;;;;;14.25;13.75;;;26.72;98109.43;;;;117868;1187;25449;-43
2022/04/12 08:18:21;;;;;;;;;23.00;15.00;;;26.70;98105.24;;;;117832;1188;24922;-38
2022/04/12 08:20:56;;;;;;;;;26.00;21.00;;;26.73;98106.06;;;;117844;1187;25860;-37
2022/04/12 08:23:29;;;;;;;;;22.00;19.25;;;26.73;98106.44;;;;117893;1186;25220;-35
2022/04/12 08:25:59;;;;;;;;;17.75;16.00;;;26.76;98100.99;;;;117830;1187;26022;-35
2022/04/12 08:28:27;;;;;;;;;17.50;14.75;;;26.75;98103.94;;;;117864;1187;25276;-36
2022/04/12 08:30:57;;;;;;;;;13.25;11.75;;;26.75;98094.77;;;;117855;1186;25345;-36
2022/04/12 08:33:26;;;;;;;;;10.50;10.50;;;26.70;98090.88;;;;117860;1188;25194;-35
2022/04/12 08:35:53;;;;;;;;;12.50;11.50;;;26.73;98093.31;;;;117933;1186;25007;-35
2022/04/12 08:38:21;;;;;;;;;11.33;9.33;;;26.73;98097.11;;;;117699;1188;25844;-32
2022/04/12 08:40:50;;;;;;;;;9.75;8.00;;;26.77;98091.80;;;;117414;1188;25337;-35
2022/04/12 08:43:21;;;;;;;;;9.00;9.00;;;26.76;98091.90;;;;117763;1188;25203;-33
2022/04/12 08:45:51;;;;;;;;;7.50;7.00;;;26.76;98092.62;;;;117715;1188;25609;-36
2022/04/12 08:48:22;;;;;;;;;8.67;7.67;;;26.81;98090.27;;;;117949;1188;24907;-35
2022/04/12 08:50:53;;;;;;;;;9.50;7.50;;;26.90;98087.08;;;;117929;1188;25664;-38
2022/04/12 08:53:22;;;;;;;;;5.75;5.75;;;26.90;98092.56;;;;117498;1190;26120;-35
2022/04/12 08:55:55;;;;;;;;;7.00;7.00;;;26.93;98088.15;;;;117603;1188;24733;-38
2022/04/12 08:58:23;;;;;;;;;9.00;9.00;;;26.92;98085.51;;;;117954;1188;25257;-35
2022/04/12 09:00:51;;;;;;;;;6.25;5.25;;;26.91;98087.03;;;;117586;1188;25834;-35
2022/04/12 09:03:19;;;;;;;;;7.00;5.75;;;26.86;98092.21;;;;117646;1189;25117;-35
2022/04/12 09:05:47;;;;;;;;;13.00;10.33;;;26.86;98089.92;;;;117934;1186;25807;-35
2022/04/12 09:08:30;;;;;;;;;8.50;7.00;;;26.90;98088.52;;;;117534;1189;25208;-39
2022/04/12 09:11:03;;;;;;;;;6.33;6.33;;;26.95;98084.84;;;;118120;1186;25091;-36
2022/04/12 09:13:31;;;;;;;;;3.50;3.50;;;27.00;98079.67;;;;117426;1188;25405;-37
2022/04/12 09:16:00;;;;;;;;;9.00;8.00;;;26.97;98072.33;;;;118053;1187;25414;-41
2022/04/12 09:18:45;;;;;;;;;7.00;6.50;;;27.06;98071.92;;;;118071;1188;25544;-35
2022/04/12 09:21:18;;;;;;;;;8.67;6.00;;;27.11;98070.85;;;;118122;1186;25179;-38
2022/04/12 09:23:50;;;;;;;;;8.50;8.00;;;27.17;98071.35;;;;117970;1188;25391;-35
2022/04/12 09:26:23;;;;;;;;;4.75;4.50;;;27.19;98066.45;;;;118056;1188;25407;-39
2022/04/12 09:28:56;;;;;;;;;6.75;6.50;;;27.25;98069.48;;;;117987;1186;26421;-34
2022/04/12 09:31:25;;;;;;;;;7.25;6.50;;;27.27;98060.04;;;;117896;1188;24888;-38
2022/04/12 09:33:54;;;;;;;;;9.33;8.00;;;27.27;98055.85;;;;117921;1188;24866;-36
2022/04/12 09:36:22;;;;;;;;;8.33;7.33;;;27.28;98061.61;;;;117799;1187;24978;-37
2022/04/12 09:38:58;;;;;;;;;7.33;6.33;;;27.25;98052.31;;;;117856;1187;25573;-37
2022/04/12 09:41:28;;;;;;;;;7.75;7.75;;;27.24;98052.10;;;;117634;1188;24944;-37
2022/04/12 09:44:05;;;;;;;;;5.75;5.75;;;27.33;98055.23;;;;117865;1187;25393;-41
2022/04/12 09:46:39;;;;;;;;;6.00;4.67;;;27.36;98039.38;;;;117954;1187;24898;-39
2022/04/12 09:49:08;;;;;;;;;5.75;5.75;;;27.40;98037.31;;;;117925;1186;25491;-37
2022/04/12 09:51:36;;;;;;;;;10.50;6.25;;;27.40;98034.99;;;;117591;1188;26307;-37
2022/04/12 09:54:08;;;;;;;;;7.00;7.00;;;27.39;98036.88;;;;117921;1188;24930;-34
2022/04/12 09:56:37;;;;;;;;;6.25;6.25;;;27.40;98035.86;;;;117949;1187;25944;-37
2022/04/12 09:59:11;;;;;;;;;7.00;5.00;;;27.43;98035.06;;;;118352;1187;25219;-37
2022/04/12 10:01:40;;;;;;;;;13.50;7.25;;;27.52;98037.20;;;;117980;1186;25614;-39
2022/04/12 10:04:10;;;;;;;;;9.50;9.50;;;27.54;98033.14;;;;117570;1188;25668;-42
2022/04/12 10:06:40;;;;;;;;;11.50;8.50;;;27.55;98024.30;;;;118166;1188;25595;-36
2022/04/12 10:09:11;;;;;;;;;5.50;5.00;;;27.62;98024.55;;;;117851;1188;24793;-39
2022/04/12 10:11:39;;;;;;;;;10.00;10.00;;;27.59;98021.64;;;;117806;1186;25687;-39
2022/04/12 10:14:07;;;;;;;;;9.50;7.50;;;27.49;98020.11;;;;117995;1186;25785;-37
2022/04/12 10:16:34;;;;;;;;;9.75;7.50;;;27.48;98020.05;;;;117503;1189;25525;-36
2022/04/12 10:19:03;;;;;;;;;8.75;7.50;;;27.44;98020.80;;;;118042;1188;25406;-37
2022/04/12 10:21:31;;;;;;;;;6.33;5.67;;;27.46;98017.46;;;;117798;1188;25766;-39
2022/04/12 10:23:59;;;;;;;;;8.50;7.75;;;27.42;98016.65;;;;117931;1186;25337;-41
2022/04/12 10:26:28;;;;;;;;;8.00;7.25;;;27.42;98020.17;;;;117830;1188;25740;-41
2022/04/12 10:29:03;;;;;;;;;11.00;8.00;;;27.43;98016.21;;;;117998;1187;25056;-35
2022/04/12 10:31:31;;;;;;;;;11.00;7.67;;;27.47;98013.71;;;;117600;1189;26119;-39
2022/04/12 10:34:11;;;;;;;;;9.50;7.00;;;27.50;98010.34;;;;117818;1188;24779;-38
2022/04/12 10:37:07;;;;;;;;;10.67;7.33;;;27.55;98010.80;;;;117706;1189;24948;-39
2022/04/12 10:40:06;;;;;;;;;8.25;6.25;;;27.72;98006.46;;;;117449;1186;24763;-40
2022/04/12 10:42:36;;;;;;;;;13.00;10.33;;;27.63;97998.25;;;;117471;1188;24946;-38
2022/04/12 10:45:08;;;;;;;;;11.25;10.50;;;27.56;97998.20;;;;117590;1190;25099;-40
2022/04/12 10:47:42;;;;;;;;;9.50;8.50;;;27.53;97999.92;;;;118245;1186;24819;-39
2022/04/12 10:50:15;;;;;;;;;11.00;9.50;;;27.58;97999.52;;;;117392;1189;25016;-37
2022/04/12 10:52:51;;;;;;;;;9.33;8.67;;;27.52;98003.95;;;;117479;1186;25489;-39
2022/04/12 10:55:27;;;;;;;;;10.25;10.00;;;27.37;98003.35;;;;117865;1186;25799;-37
2022/04/12 10:58:16;;;;;;;;;16.50;11.75;;;27.35;98003.00;;;;117949;1186;25143;-38
2022/04/12 11:00:46;;;;;;;;;11.25;9.00;;;27.30;98002.30;;;;117892;1188;25008;-38
2022/04/12 11:03:15;;;;;;;;;13.33;10.00;;;27.29;98006.06;;;;117793;1187;24959;-36
2022/04/12 11:05:54;;;;;;;;;12.25;9.75;;;27.21;98002.30;;;;117515;1188;25530;-36
2022/04/12 11:08:35;;;;;;;;;13.00;11.25;;;27.25;97999.88;;;;117324;1190;25115;-37
2022/04/12 11:11:09;;;;;;;;;9.00;8.00;;;27.26;97995.63;;;;118063;1188;24946;-38
2022/04/12 11:13:44;;;;;;;;;16.50;12.00;;;27.32;97983.31;;;;118471;1187;25232;-38
2022/04/12 11:16:20;;;;;;;;;12.75;8.00;;;27.47;97988.29;;;;118142;1186;24850;-37
2022/04/12 11:19:01;;;;;;;;;9.00;9.00;;;27.52;97992.09;;;;118355;1188;25040;-36
2022/04/12 11:21:57;;;;;;;;;10.25;9.00;;;27.57;97993.15;;;;117547;1189;24741;-37
2022/04/12 11:24:27;;;;;;;;;11.00;10.25;;;27.36;97985.41;;;;118152;1187;25026;-37
2022/04/12 11:27:14;;;;;;;;;13.00;13.00;;;27.43;97985.36;;;;118059;1188;25514;-37
2022/04/12 11:29:42;;;;;;;;;14.00;8.25;;;27.49;97988.48;;;;118216;1188;24768;-35
2022/04/12 11:32:11;;;;;;;;;16.50;13.25;;;27.46;97988.81;;;;117702;1188;24868;-37
2022/04/12 11:34:41;;;;;;;;;32.00;23.33;;;27.39;97989.38;;;;117727;1189;26094;-35
2022/04/12 11:37:10;;;;;;;;;33.33;21.33;;;27.45;97990.63;;;;118014;1188;24906;-36
2022/04/12 11:39:41;;;;;;;;;36.50;20.50;;;27.40;97980.66;;;;117791;1186;25578;-37
2022/04/12 11:42:12;;;;;;;;;36.75;24.75;;;27.37;97981.16;;;;117732;1187;26100;-38
2022/04/12 11:44:40;;;;;;;;;35.00;26.00;;;27.33;97970.95;;;;117760;1188;25055;-37
2022/04/12 11:47:10;;;;;;;;;41.50;28.50;;;27.31;97972.31;;;;117834;1187;25244;-36
2022/04/12 11:49:41;;;;;;;;;40.00;27.67;;;27.24;97974.68;;;;117785;1188;25148;-37
2022/04/12 11:52:14;;;;;;;;;31.00;24.33;;;27.16;97973.80;;;;117941;1188;24858;-37
2022/04/12 11:54:47;;;;;;;;;36.00;28.00;;;27.19;97971.73;;;;117796;1186;25488;-36
2022/04/12 11:57:21;;;;;;;;;30.50;24.00;;;27.14;97969.20;;;;118052;1188;25221;-36
2022/04/12 11:59:59;;;;;;;;;41.00;27.75;;;27.18;97970.97;;;;117834;1186;26371;-35
2022/04/12 12:02:29;;;;;;;;;39.25;22.25;;;27.13;97975.94;;;;117833;1188;24901;-38
2022/04/12 12:05:04;;;;;;;;;41.00;29.25;;;27.09;97974.14;;;;117811;1188;25889;-34
2022/04/12 12:07:36;;;;;;;;;27.75;22.00;;;27.09;97973.15;;;;117799;1186;25702;-39
2022/04/12 12:10:15;;;;;;;;;36.00;23.00;;;27.05;97969.92;;;;117968;1187;25929;-43
2022/04/12 12:12:45;;;;;;;;;34.67;26.33;;;27.10;97959.14;;;;117803;1188;25656;-34
2022/04/12 12:15:21;;;;;;;;;37.75;23.50;;;27.07;97955.96;;;;117879;1188;24992;-36
2022/04/12 12:17:51;;;;;;;;;31.50;22.25;;;27.04;97956.67;;;;117777;1186;24668;-36